sensor_id;sensor_type;location;lat;lon;timestamp;P1;durP1;ratioP1;P2;durP2;ratioP2
24859;SDS011;12936;52.006;4.350;2023-07-29T00:00:21;6.28;;;1.52;;
24859;SDS011;12936;52.006;4.350;2023-07-29T00:02:50;4.63;;;1.38;;
24859;SDS011;12936;52.006;4.350;2023-07-29T00:05:18;4.00;;;1.42;;
24859;SDS011;12936;52.006;4.350;2023-07-29T00:07:46;2.88;;;1.30;;
24859;SDS011;12936;52.006;4.350;2023-07-29T00:10:14;4.00;;;1.58;;
24859;SDS011;12936;52.006;4.350;2023-07-29T00:12:42;2.05;;;1.30;;
24859;SDS011;12936;52.006;4.350;2023-07-29T00:15:10;3.05;;;1.20;;
24859;SDS011;12936;52.006;4.350;2023-07-29T00:17:40;2.42;;;1.38;;
24859;SDS011;12936;52.006;4.350;2023-07-29T00:20:08;5.03;;;1.70;;
24859;SDS011;12936;52.006;4.350;2023-07-29T00:22:36;4.97;;;1.58;;
24859;SDS011;12936;52.006;4.350;2023-07-29T00:25:04;3.95;;;1.35;;
24859;SDS011;12936;52.006;4.350;2023-07-29T00:27:33;2.63;;;1.58;;
24859;SDS011;12936;52.006;4.350;2023-07-29T00:30:01;3.05;;;1.40;;
24859;SDS011;12936;52.006;4.350;2023-07-29T00:32:29;6.97;;;1.75;;
24859;SDS011;12936;52.006;4.350;2023-07-29T00:34:59;7.32;;;1.35;;
24859;SDS011;12936;52.006;4.350;2023-07-29T00:37:27;3.10;;;1.35;;
24859;SDS011;12936;52.006;4.350;2023-07-29T00:39:55;4.07;;;1.50;;
24859;SDS011;12936;52.006;4.350;2023-07-29T00:42:24;4.72;;;1.65;;
24859;SDS011;12936;52.006;4.350;2023-07-29T00:44:52;2.22;;;1.35;;
24859;SDS011;12936;52.006;4.350;2023-07-29T00:47:20;5.32;;;1.83;;
24859;SDS011;12936;52.006;4.350;2023-07-29T00:49:50;4.97;;;1.80;;
24859;SDS011;12936;52.006;4.350;2023-07-29T00:52:20;2.15;;;1.35;;
24859;SDS011;12936;52.006;4.350;2023-07-29T00:54:48;5.10;;;1.65;;
24859;SDS011;12936;52.006;4.350;2023-07-29T00:57:16;4.05;;;1.90;;
24859;SDS011;12936;52.006;4.350;2023-07-29T00:59:46;6.05;;;2.10;;
24859;SDS011;12936;52.006;4.350;2023-07-29T01:02:14;4.20;;;1.73;;
24859;SDS011;12936;52.006;4.350;2023-07-29T01:04:43;6.85;;;1.70;;
24859;SDS011;12936;52.006;4.350;2023-07-29T01:07:12;3.60;;;1.73;;
24859;SDS011;12936;52.006;4.350;2023-07-29T01:09:51;6.25;;;2.10;;
24859;SDS011;12936;52.006;4.350;2023-07-29T01:12:29;6.97;;;1.77;;
24859;SDS011;12936;52.006;4.350;2023-07-29T01:15:11;4.47;;;1.75;;
24859;SDS011;12936;52.006;4.350;2023-07-29T01:17:46;5.90;;;2.05;;
24859;SDS011;12936;52.006;4.350;2023-07-29T01:20:17;3.83;;;1.70;;
24859;SDS011;12936;52.006;4.350;2023-07-29T01:22:46;3.72;;;1.70;;
24859;SDS011;12936;52.006;4.350;2023-07-29T01:25:16;5.05;;;2.00;;
24859;SDS011;12936;52.006;4.350;2023-07-29T01:27:45;4.45;;;1.90;;
24859;SDS011;12936;52.006;4.350;2023-07-29T01:30:14;2.80;;;1.55;;
24859;SDS011;12936;52.006;4.350;2023-07-29T01:32:45;3.78;;;1.52;;
24859;SDS011;12936;52.006;4.350;2023-07-29T01:35:21;3.38;;;1.85;;
24859;SDS011;12936;52.006;4.350;2023-07-29T01:37:55;3.28;;;1.73;;
24859;SDS011;12936;52.006;4.350;2023-07-29T01:40:28;3.50;;;1.80;;
24859;SDS011;12936;52.006;4.350;2023-07-29T01:42:56;3.72;;;1.65;;
24859;SDS011;12936;52.006;4.350;2023-07-29T01:45:24;5.85;;;2.15;;
24859;SDS011;12936;52.006;4.350;2023-07-29T01:47:53;3.55;;;1.75;;
24859;SDS011;12936;52.006;4.350;2023-07-29T01:50:21;4.30;;;1.92;;
24859;SDS011;12936;52.006;4.350;2023-07-29T01:52:49;4.45;;;1.73;;
24859;SDS011;12936;52.006;4.350;2023-07-29T01:55:17;4.55;;;1.75;;
24859;SDS011;12936;52.006;4.350;2023-07-29T01:57:47;4.30;;;1.83;;
24859;SDS011;12936;52.006;4.350;2023-07-29T02:00:15;4.47;;;2.20;;
24859;SDS011;12936;52.006;4.350;2023-07-29T02:02:44;7.47;;;2.53;;
24859;SDS011;12936;52.006;4.350;2023-07-29T02:05:13;4.60;;;1.95;;
24859;SDS011;12936;52.006;4.350;2023-07-29T02:07:42;7.10;;;2.33;;
24859;SDS011;12936;52.006;4.350;2023-07-29T02:10:10;4.07;;;1.70;;
24859;SDS011;12936;52.006;4.350;2023-07-29T02:12:38;5.20;;;2.33;;
24859;SDS011;12936;52.006;4.350;2023-07-29T02:15:10;5.53;;;2.00;;
24859;SDS011;12936;52.006;4.350;2023-07-29T02:17:39;3.00;;;1.83;;
24859;SDS011;12936;52.006;4.350;2023-07-29T02:20:10;9.88;;;3.05;;
24859;SDS011;12936;52.006;4.350;2023-07-29T02:22:38;4.43;;;2.40;;
24859;SDS011;12936;52.006;4.350;2023-07-29T02:25:07;6.32;;;2.33;;
24859;SDS011;12936;52.006;4.350;2023-07-29T02:27:36;4.40;;;2.40;;
24859;SDS011;12936;52.006;4.350;2023-07-29T02:30:04;4.57;;;2.42;;
24859;SDS011;12936;52.006;4.350;2023-07-29T02:32:37;7.68;;;2.40;;
24859;SDS011;12936;52.006;4.350;2023-07-29T02:35:06;7.57;;;2.47;;
24859;SDS011;12936;52.006;4.350;2023-07-29T02:37:34;4.47;;;2.40;;
24859;SDS011;12936;52.006;4.350;2023-07-29T02:40:02;6.55;;;2.63;;
24859;SDS011;12936;52.006;4.350;2023-07-29T02:42:32;3.03;;;2.00;;
24859;SDS011;12936;52.006;4.350;2023-07-29T02:45:00;5.25;;;2.30;;
24859;SDS011;12936;52.006;4.350;2023-07-29T02:47:29;6.15;;;1.95;;
24859;SDS011;12936;52.006;4.350;2023-07-29T02:49:59;5.65;;;2.20;;
24859;SDS011;12936;52.006;4.350;2023-07-29T02:52:48;5.85;;;2.17;;
24859;SDS011;12936;52.006;4.350;2023-07-29T02:55:17;8.60;;;2.28;;
24859;SDS011;12936;52.006;4.350;2023-07-29T02:57:45;4.88;;;2.08;;
24859;SDS011;12936;52.006;4.350;2023-07-29T03:00:14;7.07;;;2.20;;
24859;SDS011;12936;52.006;4.350;2023-07-29T03:02:42;4.63;;;1.95;;
24859;SDS011;12936;52.006;4.350;2023-07-29T03:05:15;6.05;;;2.38;;
24859;SDS011;12936;52.006;4.350;2023-07-29T03:07:45;7.88;;;2.38;;
24859;SDS011;12936;52.006;4.350;2023-07-29T03:10:14;5.85;;;2.35;;
24859;SDS011;12936;52.006;4.350;2023-07-29T03:12:43;11.27;;;3.33;;
24859;SDS011;12936;52.006;4.350;2023-07-29T03:15:11;5.00;;;2.42;;
24859;SDS011;12936;52.006;4.350;2023-07-29T03:17:39;5.32;;;2.20;;
24859;SDS011;12936;52.006;4.350;2023-07-29T03:20:08;5.45;;;2.22;;
24859;SDS011;12936;52.006;4.350;2023-07-29T03:22:38;5.28;;;2.22;;
24859;SDS011;12936;52.006;4.350;2023-07-29T03:25:06;7.15;;;2.22;;
24859;SDS011;12936;52.006;4.350;2023-07-29T03:27:34;5.55;;;2.10;;
24859;SDS011;12936;52.006;4.350;2023-07-29T03:30:03;4.72;;;1.90;;
24859;SDS011;12936;52.006;4.350;2023-07-29T03:32:32;5.70;;;2.30;;
24859;SDS011;12936;52.006;4.350;2023-07-29T03:35:00;5.70;;;2.10;;
24859;SDS011;12936;52.006;4.350;2023-07-29T03:37:28;5.43;;;2.40;;
24859;SDS011;12936;52.006;4.350;2023-07-29T03:39:58;6.15;;;2.70;;
24859;SDS011;12936;52.006;4.350;2023-07-29T03:42:30;5.32;;;2.50;;
24859;SDS011;12936;52.006;4.350;2023-07-29T03:44:58;9.68;;;2.67;;
24859;SDS011;12936;52.006;4.350;2023-07-29T03:47:26;6.43;;;2.75;;
24859;SDS011;12936;52.006;4.350;2023-07-29T03:49:55;5.13;;;2.42;;
24859;SDS011;12936;52.006;4.350;2023-07-29T03:52:23;4.75;;;2.35;;
24859;SDS011;12936;52.006;4.350;2023-07-29T03:54:51;6.05;;;2.95;;
24859;SDS011;12936;52.006;4.350;2023-07-29T03:57:20;7.18;;;2.70;;
24859;SDS011;12936;52.006;4.350;2023-07-29T03:59:48;7.53;;;2.70;;
24859;SDS011;12936;52.006;4.350;2023-07-29T04:02:17;4.70;;;2.92;;
24859;SDS011;12936;52.006;4.350;2023-07-29T04:04:46;6.80;;;3.15;;
24859;SDS011;12936;52.006;4.350;2023-07-29T04:07:14;6.75;;;3.20;;
24859;SDS011;12936;52.006;4.350;2023-07-29T04:09:42;6.82;;;3.10;;
24859;SDS011;12936;52.006;4.350;2023-07-29T04:12:11;7.05;;;3.03;;
24859;SDS011;12936;52.006;4.350;2023-07-29T04:14:41;7.72;;;3.70;;
24859;SDS011;12936;52.006;4.350;2023-07-29T04:17:09;9.73;;;3.30;;
24859;SDS011;12936;52.006;4.350;2023-07-29T04:19:37;7.40;;;3.33;;
24859;SDS011;12936;52.006;4.350;2023-07-29T04:22:05;9.60;;;3.47;;
24859;SDS011;12936;52.006;4.350;2023-07-29T04:24:33;4.50;;;3.05;;
24859;SDS011;12936;52.006;4.350;2023-07-29T04:27:01;8.70;;;4.00;;
24859;SDS011;12936;52.006;4.350;2023-07-29T04:29:29;7.25;;;3.47;;
24859;SDS011;12936;52.006;4.350;2023-07-29T04:31:59;7.53;;;3.60;;
24859;SDS011;12936;52.006;4.350;2023-07-29T04:34:31;5.85;;;3.50;;
24859;SDS011;12936;52.006;4.350;2023-07-29T04:37:02;10.18;;;4.13;;
24859;SDS011;12936;52.006;4.350;2023-07-29T04:39:33;6.15;;;3.50;;
24859;SDS011;12936;52.006;4.350;2023-07-29T04:42:04;9.00;;;3.40;;
24859;SDS011;12936;52.006;4.350;2023-07-29T04:44:33;6.70;;;3.72;;
24859;SDS011;12936;52.006;4.350;2023-07-29T04:47:04;8.07;;;3.60;;
24859;SDS011;12936;52.006;4.350;2023-07-29T04:49:34;8.07;;;4.40;;
24859;SDS011;12936;52.006;4.350;2023-07-29T04:52:05;11.05;;;3.60;;
24859;SDS011;12936;52.006;4.350;2023-07-29T04:54:34;7.63;;;4.38;;
24859;SDS011;12936;52.006;4.350;2023-07-29T04:57:02;13.77;;;4.38;;
24859;SDS011;12936;52.006;4.350;2023-07-29T04:59:31;11.23;;;4.10;;
24859;SDS011;12936;52.006;4.350;2023-07-29T05:01:59;8.85;;;3.97;;
24859;SDS011;12936;52.006;4.350;2023-07-29T05:04:28;7.03;;;3.95;;
24859;SDS011;12936;52.006;4.350;2023-07-29T05:06:56;6.57;;;3.75;;
24859;SDS011;12936;52.006;4.350;2023-07-29T05:09:24;9.07;;;3.55;;
24859;SDS011;12936;52.006;4.350;2023-07-29T05:11:54;7.53;;;3.30;;
24859;SDS011;12936;52.006;4.350;2023-07-29T05:14:22;8.07;;;3.97;;
24859;SDS011;12936;52.006;4.350;2023-07-29T05:16:50;8.55;;;4.05;;
24859;SDS011;12936;52.006;4.350;2023-07-29T05:19:18;7.85;;;3.83;;
24859;SDS011;12936;52.006;4.350;2023-07-29T05:21:47;7.32;;;3.88;;
24859;SDS011;12936;52.006;4.350;2023-07-29T05:24:15;9.25;;;4.30;;
24859;SDS011;12936;52.006;4.350;2023-07-29T05:26:43;11.00;;;4.18;;
24859;SDS011;12936;52.006;4.350;2023-07-29T05:29:12;9.38;;;3.45;;
24859;SDS011;12936;52.006;4.350;2023-07-29T05:31:40;12.48;;;4.22;;
24859;SDS011;12936;52.006;4.350;2023-07-29T05:34:08;10.50;;;3.63;;
24859;SDS011;12936;52.006;4.350;2023-07-29T05:36:36;10.02;;;4.10;;
24859;SDS011;12936;52.006;4.350;2023-07-29T05:39:06;11.15;;;3.95;;
24859;SDS011;12936;52.006;4.350;2023-07-29T05:41:34;9.15;;;3.70;;
24859;SDS011;12936;52.006;4.350;2023-07-29T05:44:03;10.45;;;3.35;;
24859;SDS011;12936;52.006;4.350;2023-07-29T05:46:35;7.20;;;3.58;;
24859;SDS011;12936;52.006;4.350;2023-07-29T05:49:04;6.35;;;3.28;;
24859;SDS011;12936;52.006;4.350;2023-07-29T05:51:32;7.28;;;3.40;;
24859;SDS011;12936;52.006;4.350;2023-07-29T05:54:01;8.48;;;3.55;;
24859;SDS011;12936;52.006;4.350;2023-07-29T05:56:31;5.90;;;2.95;;
24859;SDS011;12936;52.006;4.350;2023-07-29T05:59:04;9.80;;;3.42;;
24859;SDS011;12936;52.006;4.350;2023-07-29T06:01:33;9.10;;;3.00;;
24859;SDS011;12936;52.006;4.350;2023-07-29T06:04:03;8.75;;;2.60;;
24859;SDS011;12936;52.006;4.350;2023-07-29T06:06:39;10.57;;;3.25;;
24859;SDS011;12936;52.006;4.350;2023-07-29T06:09:09;8.85;;;2.80;;
24859;SDS011;12936;52.006;4.350;2023-07-29T06:11:42;9.13;;;2.92;;
24859;SDS011;12936;52.006;4.350;2023-07-29T06:14:11;6.47;;;3.03;;
24859;SDS011;12936;52.006;4.350;2023-07-29T06:16:40;6.97;;;2.60;;
24859;SDS011;12936;52.006;4.350;2023-07-29T06:19:12;15.30;;;2.78;;
24859;SDS011;12936;52.006;4.350;2023-07-29T06:21:43;5.55;;;2.55;;
24859;SDS011;12936;52.006;4.350;2023-07-29T06:24:15;10.43;;;2.60;;
24859;SDS011;12936;52.006;4.350;2023-07-29T06:26:47;10.63;;;3.00;;
24859;SDS011;12936;52.006;4.350;2023-07-29T06:29:15;8.85;;;2.65;;
24859;SDS011;12936;52.006;4.350;2023-07-29T06:31:43;7.18;;;2.20;;
24859;SDS011;12936;52.006;4.350;2023-07-29T06:34:12;7.57;;;2.03;;
24859;SDS011;12936;52.006;4.350;2023-07-29T06:36:42;7.13;;;1.95;;
24859;SDS011;12936;52.006;4.350;2023-07-29T06:39:14;8.48;;;1.83;;
24859;SDS011;12936;52.006;4.350;2023-07-29T06:41:49;6.80;;;1.98;;
24859;SDS011;12936;52.006;4.350;2023-07-29T06:44:20;6.07;;;1.65;;
24859;SDS011;12936;52.006;4.350;2023-07-29T06:46:51;5.75;;;1.40;;
24859;SDS011;12936;52.006;4.350;2023-07-29T06:49:39;3.28;;;1.33;;
24859;SDS011;12936;52.006;4.350;2023-07-29T06:52:09;8.90;;;2.05;;
24859;SDS011;12936;52.006;4.350;2023-07-29T06:54:40;7.68;;;1.58;;
24859;SDS011;12936;52.006;4.350;2023-07-29T06:57:10;7.63;;;1.80;;
24859;SDS011;12936;52.006;4.350;2023-07-29T06:59:38;7.15;;;2.00;;
24859;SDS011;12936;52.006;4.350;2023-07-29T07:02:30;7.43;;;1.67;;
24859;SDS011;12936;52.006;4.350;2023-07-29T07:05:01;6.47;;;1.40;;
24859;SDS011;12936;52.006;4.350;2023-07-29T07:07:33;6.63;;;2.03;;
24859;SDS011;12936;52.006;4.350;2023-07-29T07:10:03;5.80;;;1.35;;
24859;SDS011;12936;52.006;4.350;2023-07-29T07:12:33;6.60;;;1.55;;
24859;SDS011;12936;52.006;4.350;2023-07-29T07:15:04;4.80;;;1.30;;
24859;SDS011;12936;52.006;4.350;2023-07-29T07:17:33;8.55;;;1.45;;
24859;SDS011;12936;52.006;4.350;2023-07-29T07:20:01;4.32;;;1.50;;
24859;SDS011;12936;52.006;4.350;2023-07-29T07:22:34;5.65;;;1.42;;
24859;SDS011;12936;52.006;4.350;2023-07-29T07:25:03;6.38;;;1.60;;
24859;SDS011;12936;52.006;4.350;2023-07-29T07:27:36;5.65;;;1.45;;
24859;SDS011;12936;52.006;4.350;2023-07-29T07:30:05;6.20;;;1.67;;
24859;SDS011;12936;52.006;4.350;2023-07-29T07:32:41;5.95;;;1.40;;
24859;SDS011;12936;52.006;4.350;2023-07-29T07:35:12;8.15;;;1.85;;
24859;SDS011;12936;52.006;4.350;2023-07-29T07:37:42;5.72;;;1.50;;
24859;SDS011;12936;52.006;4.350;2023-07-29T07:40:10;8.05;;;1.55;;
24859;SDS011;12936;52.006;4.350;2023-07-29T07:42:43;7.68;;;1.77;;
24859;SDS011;12936;52.006;4.350;2023-07-29T07:45:14;3.90;;;1.58;;
24859;SDS011;12936;52.006;4.350;2023-07-29T07:47:44;7.15;;;2.20;;
24859;SDS011;12936;52.006;4.350;2023-07-29T07:50:13;6.57;;;2.20;;
24859;SDS011;12936;52.006;4.350;2023-07-29T07:52:43;4.97;;;1.40;;
24859;SDS011;12936;52.006;4.350;2023-07-29T07:55:11;7.70;;;1.77;;
24859;SDS011;12936;52.006;4.350;2023-07-29T07:57:40;5.30;;;1.50;;
24859;SDS011;12936;52.006;4.350;2023-07-29T08:00:10;2.65;;;1.17;;
24859;SDS011;12936;52.006;4.350;2023-07-29T08:02:43;5.80;;;1.38;;
24859;SDS011;12936;52.006;4.350;2023-07-29T08:05:12;6.45;;;1.70;;
24859;SDS011;12936;52.006;4.350;2023-07-29T08:07:40;7.25;;;1.85;;
24859;SDS011;12936;52.006;4.350;2023-07-29T08:10:09;4.63;;;1.90;;
24859;SDS011;12936;52.006;4.350;2023-07-29T08:12:37;4.35;;;1.58;;
24859;SDS011;12936;52.006;4.350;2023-07-29T08:15:05;3.35;;;1.20;;
24859;SDS011;12936;52.006;4.350;2023-07-29T08:17:35;7.88;;;3.10;;
24859;SDS011;12936;52.006;4.350;2023-07-29T08:20:03;3.55;;;1.55;;
24859;SDS011;12936;52.006;4.350;2023-07-29T08:22:32;4.82;;;1.52;;
24859;SDS011;12936;52.006;4.350;2023-07-29T08:25:00;10.50;;;1.95;;
24859;SDS011;12936;52.006;4.350;2023-07-29T08:27:28;6.20;;;1.65;;
24859;SDS011;12936;52.006;4.350;2023-07-29T08:29:57;4.63;;;1.73;;
24859;SDS011;12936;52.006;4.350;2023-07-29T08:32:25;8.07;;;1.70;;
24859;SDS011;12936;52.006;4.350;2023-07-29T08:34:55;6.10;;;1.70;;
24859;SDS011;12936;52.006;4.350;2023-07-29T08:37:23;3.58;;;1.58;;
24859;SDS011;12936;52.006;4.350;2023-07-29T08:39:53;5.20;;;1.80;;
24859;SDS011;12936;52.006;4.350;2023-07-29T08:42:22;5.07;;;1.63;;
24859;SDS011;12936;52.006;4.350;2023-07-29T08:44:56;6.05;;;1.77;;
24859;SDS011;12936;52.006;4.350;2023-07-29T08:51:21;10.68;;;2.05;;
24859;SDS011;12936;52.006;4.350;2023-07-29T08:53:52;7.00;;;2.60;;
24859;SDS011;12936;52.006;4.350;2023-07-29T08:56:22;7.63;;;2.50;;
24859;SDS011;12936;52.006;4.350;2023-07-29T08:58:52;4.60;;;2.55;;
24859;SDS011;12936;52.006;4.350;2023-07-29T09:01:22;9.27;;;2.50;;
24859;SDS011;12936;52.006;4.350;2023-07-29T09:03:52;8.05;;;3.03;;
24859;SDS011;12936;52.006;4.350;2023-07-29T09:06:22;6.47;;;2.78;;
24859;SDS011;12936;52.006;4.350;2023-07-29T09:08:54;7.32;;;2.45;;
24859;SDS011;12936;52.006;4.350;2023-07-29T09:11:23;5.35;;;2.72;;
24859;SDS011;12936;52.006;4.350;2023-07-29T09:13:53;6.22;;;2.25;;
24859;SDS011;12936;52.006;4.350;2023-07-29T09:16:22;8.85;;;2.70;;
24859;SDS011;12936;52.006;4.350;2023-07-29T09:18:50;6.15;;;2.47;;
24859;SDS011;12936;52.006;4.350;2023-07-29T09:21:23;6.03;;;2.30;;
24859;SDS011;12936;52.006;4.350;2023-07-29T09:23:53;6.13;;;2.40;;
24859;SDS011;12936;52.006;4.350;2023-07-29T09:26:22;7.68;;;2.63;;
24859;SDS011;12936;52.006;4.350;2023-07-29T09:28:52;6.03;;;2.60;;
24859;SDS011;12936;52.006;4.350;2023-07-29T09:31:21;8.95;;;2.88;;
24859;SDS011;12936;52.006;4.350;2023-07-29T09:33:50;5.55;;;2.28;;
24859;SDS011;12936;52.006;4.350;2023-07-29T09:36:25;3.83;;;1.90;;
24859;SDS011;12936;52.006;4.350;2023-07-29T09:38:54;3.38;;;1.85;;
24859;SDS011;12936;52.006;4.350;2023-07-29T09:41:24;2.70;;;1.50;;
24859;SDS011;12936;52.006;4.350;2023-07-29T09:43:55;4.10;;;1.83;;
24859;SDS011;12936;52.006;4.350;2023-07-29T09:46:33;5.63;;;1.70;;
24859;SDS011;12936;52.006;4.350;2023-07-29T09:49:04;4.22;;;1.65;;
24859;SDS011;12936;52.006;4.350;2023-07-29T09:51:38;8.00;;;1.35;;
24859;SDS011;12936;52.006;4.350;2023-07-29T09:54:07;2.28;;;1.30;;
24859;SDS011;12936;52.006;4.350;2023-07-29T09:56:39;2.95;;;1.10;;
24859;SDS011;12936;52.006;4.350;2023-07-29T09:59:08;3.45;;;1.52;;
24859;SDS011;12936;52.006;4.350;2023-07-29T10:01:38;4.90;;;1.00;;
24859;SDS011;12936;52.006;4.350;2023-07-29T10:04:07;3.03;;;1.00;;
24859;SDS011;12936;52.006;4.350;2023-07-29T10:06:40;6.85;;;2.35;;
24859;SDS011;12936;52.006;4.350;2023-07-29T10:09:10;2.85;;;1.20;;
24859;SDS011;12936;52.006;4.350;2023-07-29T10:11:41;6.05;;;1.60;;
24859;SDS011;12936;52.006;4.350;2023-07-29T10:14:11;4.35;;;1.00;;
24859;SDS011;12936;52.006;4.350;2023-07-29T10:16:39;3.60;;;0.82;;
24859;SDS011;12936;52.006;4.350;2023-07-29T10:19:11;2.25;;;0.70;;
24859;SDS011;12936;52.006;4.350;2023-07-29T10:21:44;1.88;;;0.82;;
24859;SDS011;12936;52.006;4.350;2023-07-29T10:24:18;4.45;;;0.63;;
24859;SDS011;12936;52.006;4.350;2023-07-29T10:26:56;5.28;;;0.70;;
24859;SDS011;12936;52.006;4.350;2023-07-29T10:29:28;2.10;;;0.70;;
24859;SDS011;12936;52.006;4.350;2023-07-29T10:32:01;3.97;;;0.47;;
24859;SDS011;12936;52.006;4.350;2023-07-29T10:34:30;4.00;;;0.80;;
24859;SDS011;12936;52.006;4.350;2023-07-29T10:37:04;1.52;;;0.70;;
24859;SDS011;12936;52.006;4.350;2023-07-29T10:39:37;1.08;;;0.50;;
24859;SDS011;12936;52.006;4.350;2023-07-29T10:42:06;1.85;;;0.77;;
24859;SDS011;12936;52.006;4.350;2023-07-29T10:44:47;2.15;;;1.20;;
24859;SDS011;12936;52.006;4.350;2023-07-29T10:47:19;1.05;;;0.90;;
24859;SDS011;12936;52.006;4.350;2023-07-29T10:49:49;3.05;;;1.23;;
24859;SDS011;12936;52.006;4.350;2023-07-29T10:52:32;1.95;;;1.67;;
24859;SDS011;12936;52.006;4.350;2023-07-29T10:55:24;3.70;;;1.50;;
24859;SDS011;12936;52.006;4.350;2023-07-29T10:58:04;4.15;;;1.55;;
24859;SDS011;12936;52.006;4.350;2023-07-29T11:00:36;2.38;;;1.52;;
24859;SDS011;12936;52.006;4.350;2023-07-29T11:03:06;2.85;;;1.88;;
24859;SDS011;12936;52.006;4.350;2023-07-29T11:05:42;6.47;;;2.03;;
24859;SDS011;12936;52.006;4.350;2023-07-29T11:08:17;3.30;;;1.80;;
24859;SDS011;12936;52.006;4.350;2023-07-29T11:11:03;3.47;;;1.70;;
24859;SDS011;12936;52.006;4.350;2023-07-29T11:13:32;3.15;;;1.58;;
24859;SDS011;12936;52.006;4.350;2023-07-29T11:16:02;8.75;;;2.28;;
24859;SDS011;12936;52.006;4.350;2023-07-29T11:18:31;4.32;;;1.75;;
24859;SDS011;12936;52.006;4.350;2023-07-29T11:21:01;3.67;;;2.22;;
24859;SDS011;12936;52.006;4.350;2023-07-29T11:23:35;3.92;;;1.60;;
24859;SDS011;12936;52.006;4.350;2023-07-29T11:26:05;3.85;;;1.60;;
24859;SDS011;12936;52.006;4.350;2023-07-29T11:28:37;5.43;;;1.60;;
24859;SDS011;12936;52.006;4.350;2023-07-29T11:31:08;4.95;;;1.50;;
24859;SDS011;12936;52.006;4.350;2023-07-29T11:33:38;3.88;;;1.58;;
24859;SDS011;12936;52.006;4.350;2023-07-29T11:36:18;5.07;;;1.58;;
24859;SDS011;12936;52.006;4.350;2023-07-29T11:38:48;3.63;;;1.70;;
24859;SDS011;12936;52.006;4.350;2023-07-29T11:41:19;5.00;;;1.73;;
24859;SDS011;12936;52.006;4.350;2023-07-29T11:43:49;3.88;;;1.50;;
24859;SDS011;12936;52.006;4.350;2023-07-29T11:46:20;6.13;;;1.60;;
24859;SDS011;12936;52.006;4.350;2023-07-29T11:48:50;2.72;;;1.30;;
24859;SDS011;12936;52.006;4.350;2023-07-29T11:51:18;2.10;;;1.30;;
24859;SDS011;12936;52.006;4.350;2023-07-29T11:53:50;3.55;;;1.90;;
24859;SDS011;12936;52.006;4.350;2023-07-29T11:56:21;4.82;;;1.63;;
24859;SDS011;12936;52.006;4.350;2023-07-29T11:58:52;8.07;;;1.83;;
24859;SDS011;12936;52.006;4.350;2023-07-29T12:01:21;6.28;;;1.33;;
24859;SDS011;12936;52.006;4.350;2023-07-29T12:03:55;6.60;;;1.50;;
24859;SDS011;12936;52.006;4.350;2023-07-29T12:06:24;4.57;;;1.52;;
24859;SDS011;12936;52.006;4.350;2023-07-29T12:08:58;4.72;;;1.40;;
24859;SDS011;12936;52.006;4.350;2023-07-29T12:11:27;4.45;;;1.50;;
24859;SDS011;12936;52.006;4.350;2023-07-29T12:13:56;6.00;;;1.70;;
24859;SDS011;12936;52.006;4.350;2023-07-29T12:16:26;5.45;;;1.85;;
24859;SDS011;12936;52.006;4.350;2023-07-29T12:19:21;7.65;;;1.75;;
24859;SDS011;12936;52.006;4.350;2023-07-29T12:21:52;5.22;;;1.55;;
24859;SDS011;12936;52.006;4.350;2023-07-29T12:24:23;3.45;;;1.30;;
24859;SDS011;12936;52.006;4.350;2023-07-29T12:26:51;2.70;;;1.20;;
24859;SDS011;12936;52.006;4.350;2023-07-29T12:29:19;3.58;;;1.30;;
24859;SDS011;12936;52.006;4.350;2023-07-29T12:31:47;4.93;;;1.60;;
24859;SDS011;12936;52.006;4.350;2023-07-29T12:34:19;4.03;;;1.58;;
24859;SDS011;12936;52.006;4.350;2023-07-29T12:36:48;4.53;;;1.40;;
24859;SDS011;12936;52.006;4.350;2023-07-29T12:39:20;3.75;;;1.52;;
24859;SDS011;12936;52.006;4.350;2023-07-29T12:41:51;2.25;;;1.15;;
24859;SDS011;12936;52.006;4.350;2023-07-29T12:44:22;4.72;;;1.50;;
24859;SDS011;12936;52.006;4.350;2023-07-29T12:46:50;3.78;;;1.33;;
24859;SDS011;12936;52.006;4.350;2023-07-29T12:49:19;4.40;;;1.23;;
24859;SDS011;12936;52.006;4.350;2023-07-29T12:51:47;3.92;;;1.77;;
24859;SDS011;12936;52.006;4.350;2023-07-29T12:54:15;2.65;;;1.30;;
24859;SDS011;12936;52.006;4.350;2023-07-29T12:56:48;4.85;;;1.48;;
24859;SDS011;12936;52.006;4.350;2023-07-29T12:59:17;3.25;;;1.30;;
24859;SDS011;12936;52.006;4.350;2023-07-29T13:01:46;8.55;;;1.60;;
24859;SDS011;12936;52.006;4.350;2023-07-29T13:04:14;4.32;;;1.20;;
24859;SDS011;12936;52.006;4.350;2023-07-29T13:06:43;4.43;;;1.30;;
24859;SDS011;12936;52.006;4.350;2023-07-29T13:09:12;3.10;;;1.15;;
24859;SDS011;12936;52.006;4.350;2023-07-29T13:11:41;7.13;;;1.42;;
24859;SDS011;12936;52.006;4.350;2023-07-29T13:14:13;2.47;;;1.20;;
24859;SDS011;12936;52.006;4.350;2023-07-29T13:16:41;3.67;;;1.20;;
24859;SDS011;12936;52.006;4.350;2023-07-29T13:19:13;5.60;;;1.17;;
24859;SDS011;12936;52.006;4.350;2023-07-29T13:21:41;6.50;;;1.30;;
24859;SDS011;12936;52.006;4.350;2023-07-29T13:24:10;4.07;;;1.20;;
24859;SDS011;12936;52.006;4.350;2023-07-29T13:26:38;4.90;;;1.10;;
24859;SDS011;12936;52.006;4.350;2023-07-29T13:29:06;6.72;;;1.80;;
24859;SDS011;12936;52.006;4.350;2023-07-29T13:31:36;2.38;;;1.02;;
24859;SDS011;12936;52.006;4.350;2023-07-29T13:34:06;4.20;;;1.27;;
24859;SDS011;12936;52.006;4.350;2023-07-29T13:36:35;3.95;;;1.17;;
24859;SDS011;12936;52.006;4.350;2023-07-29T13:39:06;3.17;;;1.27;;
24859;SDS011;12936;52.006;4.350;2023-07-29T13:41:34;1.95;;;1.20;;
24859;SDS011;12936;52.006;4.350;2023-07-29T13:44:02;2.50;;;1.38;;
24859;SDS011;12936;52.006;4.350;2023-07-29T13:46:31;7.53;;;1.52;;
24859;SDS011;12936;52.006;4.350;2023-07-29T13:49:02;4.40;;;1.48;;
24859;SDS011;12936;52.006;4.350;2023-07-29T13:51:30;3.75;;;1.25;;
24859;SDS011;12936;52.006;4.350;2023-07-29T13:53:58;3.28;;;1.10;;
24859;SDS011;12936;52.006;4.350;2023-07-29T13:56:26;3.03;;;1.30;;
24859;SDS011;12936;52.006;4.350;2023-07-29T13:58:54;3.58;;;1.05;;
24859;SDS011;12936;52.006;4.350;2023-07-29T14:01:22;6.80;;;1.30;;
24859;SDS011;12936;52.006;4.350;2023-07-29T14:03:50;3.60;;;1.50;;
24859;SDS011;12936;52.006;4.350;2023-07-29T14:06:20;5.43;;;1.40;;
24859;SDS011;12936;52.006;4.350;2023-07-29T14:09:08;5.15;;;1.27;;
24859;SDS011;12936;52.006;4.350;2023-07-29T14:11:36;2.22;;;1.15;;
24859;SDS011;12936;52.006;4.350;2023-07-29T14:14:04;2.85;;;1.20;;
24859;SDS011;12936;52.006;4.350;2023-07-29T14:16:32;3.72;;;1.50;;
24859;SDS011;12936;52.006;4.350;2023-07-29T14:19:03;5.63;;;1.48;;
24859;SDS011;12936;52.006;4.350;2023-07-29T14:21:34;2.22;;;1.00;;
24859;SDS011;12936;52.006;4.350;2023-07-29T14:24:03;5.25;;;1.35;;
24859;SDS011;12936;52.006;4.350;2023-07-29T14:26:31;6.13;;;1.13;;
24859;SDS011;12936;52.006;4.350;2023-07-29T14:28:59;2.80;;;1.45;;
24859;SDS011;12936;52.006;4.350;2023-07-29T14:31:27;5.80;;;1.35;;
24859;SDS011;12936;52.006;4.350;2023-07-29T14:33:55;4.97;;;1.20;;
24859;SDS011;12936;52.006;4.350;2023-07-29T14:36:24;3.55;;;1.30;;
24859;SDS011;12936;52.006;4.350;2023-07-29T14:38:56;3.05;;;1.30;;
24859;SDS011;12936;52.006;4.350;2023-07-29T14:41:24;3.75;;;1.38;;
24859;SDS011;12936;52.006;4.350;2023-07-29T14:43:52;4.90;;;1.40;;
24859;SDS011;12936;52.006;4.350;2023-07-29T14:46:21;4.63;;;1.40;;
24859;SDS011;12936;52.006;4.350;2023-07-29T14:48:49;3.60;;;1.55;;
24859;SDS011;12936;52.006;4.350;2023-07-29T14:51:17;3.25;;;1.38;;
24859;SDS011;12936;52.006;4.350;2023-07-29T14:53:46;3.13;;;1.00;;
24859;SDS011;12936;52.006;4.350;2023-07-29T14:56:15;4.90;;;1.10;;
24859;SDS011;12936;52.006;4.350;2023-07-29T14:58:44;2.83;;;1.40;;
24859;SDS011;12936;52.006;4.350;2023-07-29T15:01:12;3.45;;;1.10;;
24859;SDS011;12936;52.006;4.350;2023-07-29T15:03:40;5.15;;;1.30;;
24859;SDS011;12936;52.006;4.350;2023-07-29T15:06:12;6.72;;;1.23;;
24859;SDS011;12936;52.006;4.350;2023-07-29T15:08:40;2.65;;;1.20;;